createdAt,value
2022-10-04T00:01:17.955Z,4.97
2022-10-04T00:04:11.897Z,5.00
2022-10-04T00:07:30.941Z,4.57
2022-10-04T00:10:22.907Z,5.53
2022-10-04T00:13:17.568Z,4.67
2022-10-04T00:16:03.267Z,3.97
2022-10-04T00:18:48.893Z,4.13
2022-10-04T00:21:52.737Z,4.78
2022-10-04T00:24:58.721Z,4.13
2022-10-04T00:28:19.423Z,4.50
2022-10-04T00:31:07.974Z,5.15
2022-10-04T00:34:16.576Z,4.78
2022-10-04T00:37:03.587Z,4.90
2022-10-04T00:40:12.235Z,4.25
2022-10-04T00:43:15.505Z,4.65
2022-10-04T00:46:19.983Z,5.65
2022-10-04T00:49:08.513Z,4.57
2022-10-04T00:52:05.564Z,5.28
2022-10-04T00:55:02.598Z,5.63
2022-10-04T00:57:50.736Z,5.18
2022-10-04T01:00:37.021Z,5.05
2022-10-04T01:03:32.705Z,5.65
2022-10-04T01:06:20.973Z,5.22
2022-10-04T01:09:09.527Z,5.95
2022-10-04T01:12:05.563Z,4.15
2022-10-04T01:15:09.717Z,5.30
2022-10-04T01:18:09.810Z,4.65
2022-10-04T01:20:58.176Z,5.30
2022-10-04T01:23:50.360Z,5.53
2022-10-04T01:26:39.677Z,3.85
2022-10-04T01:29:32.152Z,5.82
2022-10-04T01:35:04.404Z,3.50
2022-10-04T01:37:49.941Z,6.38
2022-10-04T01:40:42.909Z,5.65
2022-10-04T01:43:35.395Z,5.72
2022-10-04T01:46:32.738Z,5.47
2022-10-04T01:49:21.933Z,5.57
2022-10-04T01:52:15.085Z,4.70
2022-10-04T01:55:06.832Z,6.53
2022-10-04T01:57:58.373Z,7.22
2022-10-04T02:01:10.709Z,6.57
2022-10-04T02:04:05.683Z,6.17
2022-10-04T02:06:55.267Z,5.80
2022-10-04T02:09:44.957Z,8.95
2022-10-04T02:12:31.687Z,6.03
2022-10-04T02:15:20.394Z,6.88
2022-10-04T02:18:20.769Z,7.75
2022-10-04T02:21:08.187Z,9.73
2022-10-04T02:23:53.879Z,6.90
2022-10-04T02:26:39.397Z,6.93
2022-10-04T02:29:26.997Z,7.35
2022-10-04T02:32:33.033Z,7.10
2022-10-04T02:35:19.999Z,5.95
2022-10-04T02:38:31.261Z,6.47
2022-10-04T02:41:26.113Z,6.63
2022-10-04T02:44:35.334Z,8.20
2022-10-04T02:47:26.264Z,6.15
2022-10-04T02:50:39.961Z,7.13
2022-10-04T02:53:48.325Z,9.82
2022-10-04T02:56:35.159Z,8.85
2022-10-04T02:59:21.845Z,7.60
2022-10-04T03:02:31.025Z,8.25
2022-10-04T03:05:16.868Z,8.45
2022-10-04T03:08:05.294Z,8.20
2022-10-04T03:10:51.216Z,9.52
2022-10-04T03:13:38.554Z,9.57
2022-10-04T03:16:26.225Z,7.93
2022-10-04T03:19:13.333Z,7.65
2022-10-04T03:22:02.925Z,8.13
2022-10-04T03:24:53.768Z,7.15
2022-10-04T03:27:39.847Z,8.48
2022-10-04T03:30:25.406Z,8.63
2022-10-04T03:33:18.955Z,8.23
2022-10-04T03:36:04.898Z,8.63
2022-10-04T03:38:55.223Z,8.10
2022-10-04T03:41:42.015Z,9.23
2022-10-04T03:44:28.022Z,9.00
2022-10-04T03:47:19.383Z,8.18
2022-10-04T03:50:21.805Z,10.27
2022-10-04T03:53:29.643Z,9.82
2022-10-04T03:56:26.840Z,8.07
2022-10-04T03:59:17.892Z,8.55
2022-10-04T04:02:29.732Z,9.30
2022-10-04T04:05:35.822Z,9.43
2022-10-04T04:08:37.031Z,9.20
2022-10-04T04:11:26.085Z,9.55
2022-10-04T04:14:20.473Z,8.68
2022-10-04T04:17:27.687Z,9.52
2022-10-04T04:20:26.265Z,8.55
2022-10-04T04:23:14.464Z,10.30
2022-10-04T04:26:20.153Z,9.63
2022-10-04T04:29:33.635Z,10.55
2022-10-04T04:32:36.257Z,10.40
2022-10-04T04:35:33.593Z,10.80
2022-10-04T04:38:24.561Z,10.05
2022-10-04T04:41:10.931Z,9.02
2022-10-04T04:43:56.164Z,11.32
2022-10-04T04:46:42.203Z,10.23
2022-10-04T04:49:30.136Z,9.18
2022-10-04T04:52:19.726Z,9.63
2022-10-04T04:55:06.715Z,8.43
2022-10-04T04:57:55.967Z,9.32
2022-10-04T05:00:41.721Z,9.65
2022-10-04T05:03:30.088Z,10.13
2022-10-04T05:06:26.195Z,10.75
2022-10-04T05:09:25.105Z,8.55
2022-10-04T05:12:18.884Z,10.27
2022-10-04T05:15:04.816Z,11.50
2022-10-04T05:17:50.433Z,10.73
2022-10-04T05:20:35.788Z,10.82
2022-10-04T05:23:22.184Z,11.13
2022-10-04T05:26:12.433Z,9.45
2022-10-04T05:29:08.182Z,11.05
2022-10-04T05:32:08.663Z,11.32
2022-10-04T05:34:55.218Z,11.13
2022-10-04T05:38:00.064Z,14.45
2022-10-04T05:40:51.121Z,11.55
2022-10-04T05:43:44.811Z,12.02
2022-10-04T05:46:33.315Z,16.85
2022-10-04T05:49:22.294Z,13.45
2022-10-04T05:52:16.373Z,12.07
2022-10-04T05:55:23.419Z,12.80
2022-10-04T05:58:21.295Z,13.90
2022-10-04T06:01:34.147Z,13.90
2022-10-04T06:04:28.633Z,12.85
2022-10-04T06:07:34.640Z,12.55
2022-10-04T06:10:47.954Z,12.38
2022-10-04T06:13:51.254Z,15.43
2022-10-04T06:16:49.943Z,12.88
2022-10-04T06:19:53.748Z,15.55
2022-10-04T06:22:45.630Z,16.17
2022-10-04T06:25:47.436Z,16.83
2022-10-04T06:28:37.763Z,15.38
2022-10-04T06:31:32.679Z,12.82
2022-10-04T06:34:56.916Z,13.88
2022-10-04T06:38:07.113Z,14.10
2022-10-04T06:41:01.664Z,13.00
2022-10-04T06:44:21.476Z,12.60
2022-10-04T06:47:29.332Z,12.43
2022-10-04T06:50:17.599Z,11.40
2022-10-04T06:53:21.806Z,11.52
2022-10-04T06:56:26.624Z,10.73
2022-10-04T06:59:31.726Z,11.15
2022-10-04T07:02:39.401Z,11.43
2022-10-04T07:05:44.180Z,11.45
2022-10-04T07:08:48.068Z,10.80
2022-10-04T07:11:46.571Z,12.70
2022-10-04T07:14:37.605Z,8.75
2022-10-04T07:17:45.790Z,9.52
2022-10-04T07:20:34.518Z,8.73
2022-10-04T07:23:36.474Z,8.85
2022-10-04T07:26:45.277Z,9.45
2022-10-04T07:29:41.948Z,9.32
2022-10-04T07:32:32.581Z,9.27
2022-10-04T07:35:35.441Z,8.02
2022-10-04T07:41:20.942Z,10.07
2022-10-04T07:44:28.074Z,8.43
2022-10-04T07:47:21.244Z,9.02
2022-10-04T07:50:28.829Z,8.82
2022-10-04T07:53:29.737Z,8.05
2022-10-04T07:56:39.006Z,7.15
2022-10-04T07:59:48.474Z,8.02
2022-10-04T08:02:58.530Z,7.35
2022-10-04T08:05:54.500Z,8.93
2022-10-04T08:08:54.488Z,9.05
2022-10-04T08:12:06.308Z,7.82
2022-10-04T08:15:08.086Z,9.45
2022-10-04T08:18:18.293Z,9.00
2022-10-04T08:21:07.601Z,7.47
2022-10-04T08:24:04.992Z,8.95
2022-10-04T08:27:32.916Z,8.93
2022-10-04T08:30:19.007Z,7.80
2022-10-04T08:33:22.801Z,8.05
2022-10-04T08:36:48.167Z,11.23
2022-10-04T08:39:47.289Z,8.25
2022-10-04T08:43:11.891Z,8.43
2022-10-04T08:46:30.197Z,7.72
2022-10-04T08:49:55.243Z,8.75
2022-10-04T08:52:57.088Z,10.38
2022-10-04T08:55:49.945Z,9.05
2022-10-04T08:59:24.024Z,9.05
2022-10-04T09:02:29.629Z,12.10
2022-10-04T09:05:56.122Z,8.35
2022-10-04T09:09:01.214Z,9.88
2022-10-04T09:11:51.011Z,8.80
2022-10-04T09:15:04.101Z,9.52
2022-10-04T09:18:02.178Z,10.10
2022-10-04T09:21:10.745Z,9.48
2022-10-04T09:24:12.802Z,9.25
2022-10-04T09:27:08.048Z,9.10
2022-10-04T09:29:59.154Z,9.18
2022-10-04T09:33:08.170Z,9.98
2022-10-04T09:36:00.487Z,13.00
2022-10-04T09:39:28.497Z,12.07
2022-10-04T09:42:42.221Z,9.15
2022-10-04T09:46:05.328Z,9.40
2022-10-04T09:49:13.486Z,8.95
2022-10-04T09:52:19.090Z,10.98
2022-10-04T09:55:36.082Z,9.77
2022-10-04T09:58:46.425Z,9.38
2022-10-04T10:02:00.076Z,9.77
2022-10-04T10:05:15.845Z,9.95
2022-10-04T10:08:28.300Z,9.00
2022-10-04T10:12:01.714Z,8.50
2022-10-04T10:17:52.304Z,8.52
2022-10-04T10:20:40.631Z,8.80
2022-10-04T10:24:05.231Z,10.00
2022-10-04T10:27:13.872Z,9.07
2022-10-04T10:30:11.238Z,7.93
2022-10-04T10:33:24.240Z,7.22
2022-10-04T10:36:28.061Z,8.73
2022-10-04T10:39:49.564Z,8.00
2022-10-04T10:43:12.873Z,8.90
2022-10-04T10:46:36.180Z,9.35
2022-10-04T10:49:59.262Z,7.35
2022-10-04T10:53:14.155Z,6.90
2022-10-04T10:56:30.233Z,13.93
2022-10-04T10:59:54.028Z,8.60
2022-10-04T11:02:52.582Z,6.82
2022-10-04T11:05:44.087Z,6.05
2022-10-04T11:08:57.379Z,6.83
2022-10-04T11:12:27.116Z,7.07
2022-10-04T11:15:36.310Z,7.22
2022-10-04T11:18:48.645Z,6.22
2022-10-04T11:25:00.135Z,6.22
2022-10-04T11:28:12.454Z,6.82
2022-10-04T11:31:23.696Z,5.38
2022-10-04T11:34:32.242Z,7.03
2022-10-04T11:38:03.932Z,5.40
2022-10-04T11:41:16.665Z,6.95
2022-10-04T11:44:04.644Z,5.80
2022-10-04T11:47:04.322Z,4.97
2022-10-04T11:50:23.118Z,5.38
2022-10-04T11:53:34.107Z,5.38
2022-10-04T11:56:41.767Z,4.85
2022-10-04T11:59:45.458Z,5.18
2022-10-04T12:03:07.836Z,4.93
2022-10-04T12:06:04.430Z,5.45
2022-10-04T12:09:11.950Z,5.82
2022-10-04T12:12:37.542Z,5.43
2022-10-04T12:15:55.674Z,5.45
2022-10-04T12:19:00.833Z,4.78
2022-10-04T12:22:11.683Z,5.28
2022-10-04T12:25:09.342Z,5.22
2022-10-04T12:28:22.101Z,6.70
2022-10-04T12:31:07.776Z,7.35
2022-10-04T12:34:14.938Z,4.25
2022-10-04T12:37:18.715Z,4.40
2022-10-04T12:40:15.361Z,6.95
2022-10-04T12:43:28.129Z,4.70
2022-10-04T12:46:29.240Z,6.78
2022-10-04T12:49:34.132Z,6.13
2022-10-04T12:52:27.224Z,5.68
2022-10-04T12:55:40.913Z,5.43
2022-10-04T12:58:52.425Z,4.60
2022-10-04T13:01:49.853Z,5.55
2022-10-04T13:04:59.196Z,5.43
2022-10-04T13:08:13.867Z,5.00
2022-10-04T13:11:24.558Z,5.68
2022-10-04T13:14:29.418Z,5.78
2022-10-04T13:17:32.836Z,7.28
2022-10-04T13:20:50.897Z,4.40
2022-10-04T13:23:47.263Z,4.93
2022-10-04T13:26:48.816Z,6.85
2022-10-04T13:29:57.903Z,5.43
2022-10-04T13:32:52.694Z,6.07
2022-10-04T13:35:51.812Z,5.32
2022-10-04T13:38:55.675Z,5.22
2022-10-04T13:42:15.280Z,6.13
2022-10-04T13:45:38.204Z,8.00
2022-10-04T13:48:51.602Z,7.10
2022-10-04T13:51:47.091Z,4.80
2022-10-04T13:55:15.451Z,5.95
2022-10-04T13:58:17.301Z,4.72
2022-10-04T14:01:32.964Z,5.95
2022-10-04T14:05:01.633Z,5.65
2022-10-04T14:08:33.026Z,5.93
2022-10-04T14:11:43.785Z,4.55
2022-10-04T14:15:05.040Z,4.47
2022-10-04T14:18:04.535Z,4.50
2022-10-04T14:21:31.658Z,5.63
2022-10-04T14:24:46.948Z,3.85
2022-10-04T14:27:54.121Z,4.55
2022-10-04T14:31:01.941Z,5.30
2022-10-04T14:34:06.307Z,5.32
2022-10-04T14:37:08.346Z,4.63
2022-10-04T14:40:19.037Z,4.15
2022-10-04T14:43:23.061Z,4.60
2022-10-04T14:46:42.948Z,3.75
2022-10-04T14:50:05.717Z,3.55
2022-10-04T14:53:01.348Z,5.38
2022-10-04T14:56:15.912Z,5.15
2022-10-04T14:59:23.108Z,5.43
2022-10-04T15:02:46.028Z,5.25
2022-10-04T15:05:53.016Z,4.32
2022-10-04T15:09:03.099Z,7.07
2022-10-04T15:12:52.019Z,4.28
2022-10-04T15:16:08.874Z,4.65
2022-10-04T15:19:04.482Z,4.93
2022-10-04T15:21:56.021Z,4.53
2022-10-04T15:24:52.147Z,3.45
2022-10-04T15:27:49.606Z,3.58
2022-10-04T15:30:56.402Z,3.92
2022-10-04T15:33:47.004Z,3.80
2022-10-04T15:37:01.781Z,4.05
2022-10-04T15:40:16.043Z,5.75
2022-10-04T15:43:25.077Z,4.53
2022-10-04T15:46:35.290Z,4.93
2022-10-04T15:49:36.754Z,4.35
2022-10-04T15:52:53.401Z,5.38
2022-10-04T15:55:42.173Z,6.82
2022-10-04T15:58:57.121Z,5.30
2022-10-04T16:01:59.840Z,4.05
2022-10-04T16:05:14.124Z,5.32
2022-10-04T16:08:23.155Z,3.50
2022-10-04T16:11:25.853Z,3.45
2022-10-04T16:14:22.543Z,4.93
2022-10-04T16:17:26.109Z,4.85
2022-10-04T16:20:35.759Z,3.42
2022-10-04T16:23:32.393Z,3.75
2022-10-04T16:26:19.363Z,4.40
2022-10-04T16:29:18.689Z,4.60
2022-10-04T16:32:42.499Z,3.95
2022-10-04T16:35:34.856Z,4.03
2022-10-04T16:38:24.729Z,3.80
2022-10-04T16:41:14.372Z,4.65
2022-10-04T16:44:02.610Z,5.25
2022-10-04T16:46:52.126Z,3.88
2022-10-04T16:49:48.406Z,4.93
2022-10-04T16:52:57.491Z,3.70
2022-10-04T16:55:50.833Z,4.68
2022-10-04T16:58:43.959Z,5.70
2022-10-04T17:02:03.412Z,4.68
2022-10-04T17:04:53.946Z,5.88
2022-10-04T17:08:07.126Z,5.07
2022-10-04T17:11:17.669Z,4.63
2022-10-04T17:14:22.349Z,3.67
2022-10-04T17:17:22.157Z,4.68
2022-10-04T17:20:45.416Z,4.80
2022-10-04T17:23:52.548Z,4.07
2022-10-04T17:27:08.447Z,4.22
2022-10-04T17:30:21.656Z,4.45
2022-10-04T17:33:15.702Z,4.35
2022-10-04T17:36:08.159Z,3.90
2022-10-04T17:39:15.453Z,4.28
2022-10-04T17:42:20.223Z,4.50
2022-10-04T17:45:25.228Z,4.38
2022-10-04T17:48:45.718Z,3.65
2022-10-04T17:52:03.834Z,4.80
2022-10-04T17:55:14.409Z,4.25
2022-10-04T17:58:11.454Z,4.20
2022-10-04T18:01:16.237Z,5.25
2022-10-04T18:04:20.380Z,4.18
2022-10-04T18:07:20.676Z,4.93
2022-10-04T18:10:28.870Z,4.25
2022-10-04T18:13:30.951Z,4.65
2022-10-04T18:16:28.330Z,4.63
2022-10-04T18:19:43.396Z,5.25
2022-10-04T18:22:45.750Z,5.18
2022-10-04T18:25:33.984Z,4.60
2022-10-04T18:28:23.127Z,4.25
2022-10-04T18:31:23.480Z,4.30
2022-10-04T18:34:18.172Z,5.05
2022-10-04T18:37:20.269Z,3.92
2022-10-04T18:40:15.044Z,4.10
2022-10-04T18:43:01.931Z,4.00
2022-10-04T18:46:05.115Z,3.60
2022-10-04T18:49:08.831Z,3.78
2022-10-04T18:52:25.074Z,4.15
2022-10-04T18:55:29.773Z,4.50
2022-10-04T18:59:04.486Z,4.32
2022-10-04T19:02:06.303Z,4.60
2022-10-04T19:05:01.530Z,4.38
2022-10-04T19:08:13.091Z,4.40
2022-10-04T19:11:15.594Z,4.15
2022-10-04T19:14:29.768Z,5.22
2022-10-04T19:17:37.790Z,5.03
2022-10-04T19:20:44.413Z,6.15
2022-10-04T19:23:46.973Z,5.00
2022-10-04T19:26:41.367Z,5.30
2022-10-04T19:29:26.673Z,4.25
2022-10-04T19:32:19.893Z,4.55
2022-10-04T19:35:47.632Z,4.30
2022-10-04T19:39:12.372Z,4.97
2022-10-04T19:41:57.775Z,5.53
2022-10-04T19:44:43.498Z,4.95
2022-10-04T19:47:41.009Z,4.25
2022-10-04T19:50:46.597Z,3.72
2022-10-04T19:53:43.556Z,3.83
2022-10-04T19:56:36.105Z,3.75
2022-10-04T19:59:48.410Z,3.53
2022-10-04T20:02:33.790Z,3.70
2022-10-04T20:05:28.200Z,4.30
2022-10-04T20:08:16.291Z,3.53
2022-10-04T20:11:20.540Z,3.35
2022-10-04T20:14:08.675Z,3.72
2022-10-04T20:16:57.085Z,4.85
2022-10-04T20:19:44.465Z,3.28
2022-10-04T20:22:52.037Z,3.08
2022-10-04T20:25:43.413Z,3.42
2022-10-04T20:28:28.867Z,4.63
2022-10-04T20:31:27.254Z,3.40
2022-10-04T20:34:37.606Z,3.58
2022-10-04T20:37:45.270Z,3.15
2022-10-04T20:40:39.410Z,3.00
2022-10-04T20:43:26.534Z,3.42
2022-10-04T20:46:23.367Z,3.45
2022-10-04T20:49:17.013Z,4.03
2022-10-04T20:52:02.649Z,3.60
2022-10-04T20:54:52.386Z,3.53
2022-10-04T20:57:40.633Z,3.45
2022-10-04T21:00:27.540Z,3.15
2022-10-04T21:03:18.020Z,4.95
2022-10-04T21:06:06.333Z,4.13
2022-10-04T21:08:52.304Z,3.25
2022-10-04T21:11:45.474Z,3.70
2022-10-04T21:14:35.968Z,3.60
2022-10-04T21:17:30.219Z,3.45
2022-10-04T21:20:42.873Z,3.40
2022-10-04T21:26:20.909Z,3.50
2022-10-04T21:29:06.441Z,3.55
2022-10-04T21:31:53.082Z,3.47
2022-10-04T21:34:53.061Z,4.22
2022-10-04T21:37:39.278Z,3.28
2022-10-04T21:40:24.543Z,2.67
2022-10-04T21:43:10.320Z,2.60
2022-10-04T21:45:56.012Z,3.03
2022-10-04T21:48:41.533Z,2.03
2022-10-04T21:51:27.133Z,2.53
2022-10-04T21:54:12.952Z,2.78
2022-10-04T21:56:58.335Z,2.53
2022-10-04T21:59:43.920Z,1.80
2022-10-04T22:02:29.828Z,2.88
2022-10-04T22:05:15.848Z,2.00
2022-10-04T22:08:01.390Z,1.95
2022-10-04T22:10:48.044Z,2.58
2022-10-04T22:13:33.314Z,2.28
2022-10-04T22:16:18.751Z,2.50
2022-10-04T22:19:04.443Z,1.95
2022-10-04T22:21:50.074Z,1.67
2022-10-04T22:24:36.461Z,2.08
2022-10-04T22:27:21.765Z,1.95
2022-10-04T22:30:18.543Z,1.88
2022-10-04T22:33:20.585Z,2.42
2022-10-04T22:36:18.415Z,2.05
2022-10-04T22:39:13.182Z,2.13
2022-10-04T22:42:01.021Z,1.60
2022-10-04T22:44:46.789Z,2.42
2022-10-04T22:47:32.405Z,2.13
2022-10-04T22:50:31.335Z,1.88
2022-10-04T22:53:20.835Z,2.13
2022-10-04T22:56:06.729Z,1.98
2022-10-04T22:58:52.565Z,1.90
2022-10-04T23:01:38.745Z,2.33
2022-10-04T23:04:26.040Z,2.88
2022-10-04T23:07:11.777Z,2.13
2022-10-04T23:09:57.060Z,2.58
2022-10-04T23:12:45.665Z,1.92
2022-10-04T23:15:30.896Z,2.15
2022-10-04T23:18:18.380Z,1.95
2022-10-04T23:21:15.055Z,2.40
2022-10-04T23:24:14.489Z,2.50
2022-10-04T23:27:02.534Z,2.55
2022-10-04T23:29:49.021Z,2.60
2022-10-04T23:32:34.660Z,1.80
2022-10-04T23:35:23.781Z,2.75
2022-10-04T23:38:18.611Z,2.15
2022-10-04T23:41:09.696Z,2.28
2022-10-04T23:43:55.319Z,2.33
2022-10-04T23:46:40.513Z,2.58
2022-10-04T23:49:26.273Z,3.15
2022-10-04T23:52:39.451Z,2.40
2022-10-04T23:55:29.018Z,3.00
2022-10-04T23:58:17.581Z,3.03
